sensor_id;sensor_type;location;lat;lon;timestamp;temperature;humidity
60309;DHT22;50313;52.894;6.492;2023-06-10T00:01:31;17.50;92.60
60309;DHT22;50313;52.894;6.492;2023-06-10T00:04:02;17.50;92.50
60309;DHT22;50313;52.894;6.492;2023-06-10T00:06:30;17.40;92.70
60309;DHT22;50313;52.894;6.492;2023-06-10T00:09:09;17.30;92.80
60309;DHT22;50313;52.894;6.492;2023-06-10T00:11:46;17.40;92.90
60309;DHT22;50313;52.894;6.492;2023-06-10T00:14:15;17.30;93.10
60309;DHT22;50313;52.894;6.492;2023-06-10T00:16:51;17.30;93.30
60309;DHT22;50313;52.894;6.492;2023-06-10T00:19:17;17.30;93.60
60309;DHT22;50313;52.894;6.492;2023-06-10T00:21:44;17.20;93.70
60309;DHT22;50313;52.894;6.492;2023-06-10T00:24:19;17.20;93.70
60309;DHT22;50313;52.894;6.492;2023-06-10T00:26:47;17.10;93.90
60309;DHT22;50313;52.894;6.492;2023-06-10T00:29:13;17.10;94.20
60309;DHT22;50313;52.894;6.492;2023-06-10T00:31:47;17.00;94.20
60309;DHT22;50313;52.894;6.492;2023-06-10T00:34:13;17.00;94.80
60309;DHT22;50313;52.894;6.492;2023-06-10T00:36:39;16.80;95.00
60309;DHT22;50313;52.894;6.492;2023-06-10T00:39:11;16.90;95.20
60309;DHT22;50313;52.894;6.492;2023-06-10T00:41:39;16.90;95.40
60309;DHT22;50313;52.894;6.492;2023-06-10T00:44:07;16.90;95.40
60309;DHT22;50313;52.894;6.492;2023-06-10T00:46:34;16.80;95.70
60309;DHT22;50313;52.894;6.492;2023-06-10T00:49:06;16.80;96.00
60309;DHT22;50313;52.894;6.492;2023-06-10T00:51:35;16.70;96.10
60309;DHT22;50313;52.894;6.492;2023-06-10T00:54:02;16.70;96.10
60309;DHT22;50313;52.894;6.492;2023-06-10T00:56:31;16.70;96.50
60309;DHT22;50313;52.894;6.492;2023-06-10T00:59:08;16.70;96.50
60309;DHT22;50313;52.894;6.492;2023-06-10T01:01:37;16.70;96.40
60309;DHT22;50313;52.894;6.492;2023-06-10T01:04:07;16.50;96.70
60309;DHT22;50313;52.894;6.492;2023-06-10T01:07:08;16.60;97.00
60309;DHT22;50313;52.894;6.492;2023-06-10T01:09:45;16.50;97.30
60309;DHT22;50313;52.894;6.492;2023-06-10T01:15:20;16.50;97.60
60309;DHT22;50313;52.894;6.492;2023-06-10T01:17:54;16.50;97.20
60309;DHT22;50313;52.894;6.492;2023-06-10T01:20:20;16.40;97.60
60309;DHT22;50313;52.894;6.492;2023-06-10T01:23:01;16.40;97.70
60309;DHT22;50313;52.894;6.492;2023-06-10T01:25:35;16.40;97.90
60309;DHT22;50313;52.894;6.492;2023-06-10T01:28:07;16.30;98.00
60309;DHT22;50313;52.894;6.492;2023-06-10T01:33:15;16.20;98.20
60309;DHT22;50313;52.894;6.492;2023-06-10T01:35:46;16.20;98.30
60309;DHT22;50313;52.894;6.492;2023-06-10T01:38:18;16.20;98.50
60309;DHT22;50313;52.894;6.492;2023-06-10T01:40:49;16.20;98.40
60309;DHT22;50313;52.894;6.492;2023-06-10T01:43:23;16.10;98.40
60309;DHT22;50313;52.894;6.492;2023-06-10T01:45:49;16.10;98.60
60309;DHT22;50313;52.894;6.492;2023-06-10T01:48:15;16.10;98.50
60309;DHT22;50313;52.894;6.492;2023-06-10T01:50:44;16.10;98.70
60309;DHT22;50313;52.894;6.492;2023-06-10T01:53:10;16.10;98.50
60309;DHT22;50313;52.894;6.492;2023-06-10T01:55:39;16.10;98.40
60309;DHT22;50313;52.894;6.492;2023-06-10T01:58:07;16.00;98.20
60309;DHT22;50313;52.894;6.492;2023-06-10T02:00:36;16.00;98.50
60309;DHT22;50313;52.894;6.492;2023-06-10T02:03:05;16.00;98.80
60309;DHT22;50313;52.894;6.492;2023-06-10T02:05:31;16.00;98.70
60309;DHT22;50313;52.894;6.492;2023-06-10T02:07:59;15.90;98.40
60309;DHT22;50313;52.894;6.492;2023-06-10T02:10:31;15.90;98.50
60309;DHT22;50313;52.894;6.492;2023-06-10T02:13:12;15.90;98.60
60309;DHT22;50313;52.894;6.492;2023-06-10T02:15:46;15.90;98.60
60309;DHT22;50313;52.894;6.492;2023-06-10T02:18:17;15.80;98.50
60309;DHT22;50313;52.894;6.492;2023-06-10T02:20:48;15.90;98.40
60309;DHT22;50313;52.894;6.492;2023-06-10T02:23:19;15.80;98.90
60309;DHT22;50313;52.894;6.492;2023-06-10T02:25:47;15.70;99.10
60309;DHT22;50313;52.894;6.492;2023-06-10T02:28:13;15.70;99.10
60309;DHT22;50313;52.894;6.492;2023-06-10T02:30:41;15.70;99.30
60309;DHT22;50313;52.894;6.492;2023-06-10T02:33:10;15.60;99.30
60309;DHT22;50313;52.894;6.492;2023-06-10T02:35:40;15.60;99.20
60309;DHT22;50313;52.894;6.492;2023-06-10T02:38:08;15.60;99.60
60309;DHT22;50313;52.894;6.492;2023-06-10T02:40:37;15.60;99.40
60309;DHT22;50313;52.894;6.492;2023-06-10T02:43:03;15.50;99.80
60309;DHT22;50313;52.894;6.492;2023-06-10T02:45:29;15.50;99.70
60309;DHT22;50313;52.894;6.492;2023-06-10T02:47:55;15.50;99.90
60309;DHT22;50313;52.894;6.492;2023-06-10T02:50:23;15.40;99.90
60309;DHT22;50313;52.894;6.492;2023-06-10T02:52:53;15.40;99.90
60309;DHT22;50313;52.894;6.492;2023-06-10T02:55:19;15.30;99.90
60309;DHT22;50313;52.894;6.492;2023-06-10T02:57:48;15.30;99.90
60309;DHT22;50313;52.894;6.492;2023-06-10T03:00:15;15.20;99.90
60309;DHT22;50313;52.894;6.492;2023-06-10T03:02:43;15.20;99.90
60309;DHT22;50313;52.894;6.492;2023-06-10T03:05:16;15.20;99.90
60309;DHT22;50313;52.894;6.492;2023-06-10T03:07:44;15.20;99.90
60309;DHT22;50313;52.894;6.492;2023-06-10T03:10:16;15.20;99.90
60309;DHT22;50313;52.894;6.492;2023-06-10T03:12:42;15.10;99.90
60309;DHT22;50313;52.894;6.492;2023-06-10T03:15:12;15.10;99.90
60309;DHT22;50313;52.894;6.492;2023-06-10T03:18:04;15.00;99.90
60309;DHT22;50313;52.894;6.492;2023-06-10T03:20:33;15.00;99.90
60309;DHT22;50313;52.894;6.492;2023-06-10T03:23:05;15.00;99.90
60309;DHT22;50313;52.894;6.492;2023-06-10T03:25:37;15.00;99.90
60309;DHT22;50313;52.894;6.492;2023-06-10T03:28:11;14.90;99.90
60309;DHT22;50313;52.894;6.492;2023-06-10T03:30:40;14.90;99.90
60309;DHT22;50313;52.894;6.492;2023-06-10T03:33:11;14.90;99.90
60309;DHT22;50313;52.894;6.492;2023-06-10T03:35:43;14.80;99.90
60309;DHT22;50313;52.894;6.492;2023-06-10T03:38:08;14.80;99.90
60309;DHT22;50313;52.894;6.492;2023-06-10T03:40:34;14.80;99.90
60309;DHT22;50313;52.894;6.492;2023-06-10T03:43:00;14.80;99.90
60309;DHT22;50313;52.894;6.492;2023-06-10T03:45:26;14.80;99.90
60309;DHT22;50313;52.894;6.492;2023-06-10T03:47:54;14.70;99.90
60309;DHT22;50313;52.894;6.492;2023-06-10T03:50:19;14.70;99.90
60309;DHT22;50313;52.894;6.492;2023-06-10T03:52:50;14.70;99.90
60309;DHT22;50313;52.894;6.492;2023-06-10T03:55:16;14.70;99.90
60309;DHT22;50313;52.894;6.492;2023-06-10T03:57:43;14.70;99.90
60309;DHT22;50313;52.894;6.492;2023-06-10T04:00:10;14.60;99.90
60309;DHT22;50313;52.894;6.492;2023-06-10T04:02:42;14.60;99.90
60309;DHT22;50313;52.894;6.492;2023-06-10T04:05:15;14.60;99.90
60309;DHT22;50313;52.894;6.492;2023-06-10T04:07:42;14.60;99.90
60309;DHT22;50313;52.894;6.492;2023-06-10T04:10:14;14.60;99.90
60309;DHT22;50313;52.894;6.492;2023-06-10T04:12:45;14.70;99.90
60309;DHT22;50313;52.894;6.492;2023-06-10T04:15:11;14.60;99.90
60309;DHT22;50313;52.894;6.492;2023-06-10T04:17:42;14.50;99.90
60309;DHT22;50313;52.894;6.492;2023-06-10T04:20:08;14.60;99.90
60309;DHT22;50313;52.894;6.492;2023-06-10T04:22:35;14.60;99.90
60309;DHT22;50313;52.894;6.492;2023-06-10T04:25:04;14.60;99.90
60309;DHT22;50313;52.894;6.492;2023-06-10T04:27:33;14.60;99.90
60309;DHT22;50313;52.894;6.492;2023-06-10T04:30:04;14.60;99.90
60309;DHT22;50313;52.894;6.492;2023-06-10T04:32:35;14.60;99.90
60309;DHT22;50313;52.894;6.492;2023-06-10T04:35:10;14.60;99.90
60309;DHT22;50313;52.894;6.492;2023-06-10T04:37:39;14.60;99.90
60309;DHT22;50313;52.894;6.492;2023-06-10T04:40:05;14.70;99.90
60309;DHT22;50313;52.894;6.492;2023-06-10T04:42:35;14.70;99.90
60309;DHT22;50313;52.894;6.492;2023-06-10T04:45:03;14.70;99.90
60309;DHT22;50313;52.894;6.492;2023-06-10T04:47:29;14.70;99.90
60309;DHT22;50313;52.894;6.492;2023-06-10T04:49:59;14.70;99.90
60309;DHT22;50313;52.894;6.492;2023-06-10T04:52:27;14.80;99.90
60309;DHT22;50313;52.894;6.492;2023-06-10T04:54:54;14.80;99.90
60309;DHT22;50313;52.894;6.492;2023-06-10T04:57:20;14.90;99.90
60309;DHT22;50313;52.894;6.492;2023-06-10T04:59:47;14.90;99.90
60309;DHT22;50313;52.894;6.492;2023-06-10T05:02:16;15.00;99.90
60309;DHT22;50313;52.894;6.492;2023-06-10T05:04:44;15.00;99.90
60309;DHT22;50313;52.894;6.492;2023-06-10T05:07:15;15.10;99.90
60309;DHT22;50313;52.894;6.492;2023-06-10T05:09:41;15.10;99.90
60309;DHT22;50313;52.894;6.492;2023-06-10T05:12:16;15.10;99.90
60309;DHT22;50313;52.894;6.492;2023-06-10T05:14:44;15.20;99.90
60309;DHT22;50313;52.894;6.492;2023-06-10T05:17:10;15.10;99.90
60309;DHT22;50313;52.894;6.492;2023-06-10T05:19:40;15.20;99.90
60309;DHT22;50313;52.894;6.492;2023-06-10T05:22:15;15.30;99.90
60309;DHT22;50313;52.894;6.492;2023-06-10T05:24:44;15.30;99.90
60309;DHT22;50313;52.894;6.492;2023-06-10T05:27:15;15.40;99.90
60309;DHT22;50313;52.894;6.492;2023-06-10T05:29:47;15.40;99.90
60309;DHT22;50313;52.894;6.492;2023-06-10T05:32:15;15.50;99.90
60309;DHT22;50313;52.894;6.492;2023-06-10T05:34:50;15.70;99.90
60309;DHT22;50313;52.894;6.492;2023-06-10T05:37:16;15.60;99.90
60309;DHT22;50313;52.894;6.492;2023-06-10T05:39:49;15.70;99.90
60309;DHT22;50313;52.894;6.492;2023-06-10T05:42:20;15.80;99.90
60309;DHT22;50313;52.894;6.492;2023-06-10T05:44:48;15.90;99.90
60309;DHT22;50313;52.894;6.492;2023-06-10T05:47:20;15.90;99.90
60309;DHT22;50313;52.894;6.492;2023-06-10T05:49:56;16.00;99.90
60309;DHT22;50313;52.894;6.492;2023-06-10T05:52:24;16.10;99.90
60309;DHT22;50313;52.894;6.492;2023-06-10T05:54:50;16.10;99.90
60309;DHT22;50313;52.894;6.492;2023-06-10T05:57:20;16.10;99.90
60309;DHT22;50313;52.894;6.492;2023-06-10T05:59:48;16.30;99.90
60309;DHT22;50313;52.894;6.492;2023-06-10T06:02:22;16.30;99.90
60309;DHT22;50313;52.894;6.492;2023-06-10T06:04:47;16.40;99.90
60309;DHT22;50313;52.894;6.492;2023-06-10T06:07:25;16.40;99.90
60309;DHT22;50313;52.894;6.492;2023-06-10T06:09:53;16.50;99.90
60309;DHT22;50313;52.894;6.492;2023-06-10T06:12:21;16.60;99.90
60309;DHT22;50313;52.894;6.492;2023-06-10T06:14:52;16.70;99.90
60309;DHT22;50313;52.894;6.492;2023-06-10T06:17:43;16.70;99.90
60309;DHT22;50313;52.894;6.492;2023-06-10T06:20:09;16.80;99.90
60309;DHT22;50313;52.894;6.492;2023-06-10T06:22:45;16.80;99.90
60309;DHT22;50313;52.894;6.492;2023-06-10T06:25:12;16.90;99.90
60309;DHT22;50313;52.894;6.492;2023-06-10T06:27:47;16.90;99.90
60309;DHT22;50313;52.894;6.492;2023-06-10T06:30:16;17.00;99.90
60309;DHT22;50313;52.894;6.492;2023-06-10T06:32:42;17.10;99.90
60309;DHT22;50313;52.894;6.492;2023-06-10T06:35:10;17.30;99.90
60309;DHT22;50313;52.894;6.492;2023-06-10T06:37:41;17.40;99.90
60309;DHT22;50313;52.894;6.492;2023-06-10T06:40:10;17.50;99.90
60309;DHT22;50313;52.894;6.492;2023-06-10T06:42:44;17.50;99.90
60309;DHT22;50313;52.894;6.492;2023-06-10T06:45:10;17.50;99.90
60309;DHT22;50313;52.894;6.492;2023-06-10T06:47:39;17.60;99.90
60309;DHT22;50313;52.894;6.492;2023-06-10T06:50:10;17.70;99.90
60309;DHT22;50313;52.894;6.492;2023-06-10T06:52:43;17.80;99.90
60309;DHT22;50313;52.894;6.492;2023-06-10T06:55:14;17.80;99.90
60309;DHT22;50313;52.894;6.492;2023-06-10T06:57:42;17.90;99.90
60309;DHT22;50313;52.894;6.492;2023-06-10T07:00:49;18.00;99.90
60309;DHT22;50313;52.894;6.492;2023-06-10T07:06:08;18.10;99.90
60309;DHT22;50313;52.894;6.492;2023-06-10T07:08:36;18.20;99.90
60309;DHT22;50313;52.894;6.492;2023-06-10T07:11:02;18.40;99.90
60309;DHT22;50313;52.894;6.492;2023-06-10T07:13:30;18.30;99.90
60309;DHT22;50313;52.894;6.492;2023-06-10T07:15:59;18.40;99.90
60309;DHT22;50313;52.894;6.492;2023-06-10T07:18:36;18.60;99.90
60309;DHT22;50313;52.894;6.492;2023-06-10T07:21:31;18.60;99.90
60309;DHT22;50313;52.894;6.492;2023-06-10T07:24:24;18.60;99.90
60309;DHT22;50313;52.894;6.492;2023-06-10T07:26:59;18.70;99.90
60309;DHT22;50313;52.894;6.492;2023-06-10T07:29:25;18.80;99.90
60309;DHT22;50313;52.894;6.492;2023-06-10T07:31:51;18.90;99.90
60309;DHT22;50313;52.894;6.492;2023-06-10T07:34:19;18.90;99.90
60309;DHT22;50313;52.894;6.492;2023-06-10T07:36:54;19.00;99.90
60309;DHT22;50313;52.894;6.492;2023-06-10T07:39:38;19.10;99.90
60309;DHT22;50313;52.894;6.492;2023-06-10T07:42:12;19.20;99.90
60309;DHT22;50313;52.894;6.492;2023-06-10T07:44:38;19.30;99.90
60309;DHT22;50313;52.894;6.492;2023-06-10T07:47:07;19.40;99.70
60309;DHT22;50313;52.894;6.492;2023-06-10T07:52:19;19.60;99.00
60309;DHT22;50313;52.894;6.492;2023-06-10T07:54:48;19.70;98.30
60309;DHT22;50313;52.894;6.492;2023-06-10T07:57:15;19.80;97.80
60309;DHT22;50313;52.894;6.492;2023-06-10T07:59:41;19.80;98.30
60309;DHT22;50313;52.894;6.492;2023-06-10T08:02:10;19.90;98.90
60309;DHT22;50313;52.894;6.492;2023-06-10T08:04:36;19.90;97.70
60309;DHT22;50313;52.894;6.492;2023-06-10T08:07:05;20.00;98.30
60309;DHT22;50313;52.894;6.492;2023-06-10T08:09:55;20.20;99.70
60309;DHT22;50313;52.894;6.492;2023-06-10T08:12:23;20.30;98.20
60309;DHT22;50313;52.894;6.492;2023-06-10T08:14:52;20.40;97.70
60309;DHT22;50313;52.894;6.492;2023-06-10T08:17:30;20.40;95.70
60309;DHT22;50313;52.894;6.492;2023-06-10T08:20:09;20.40;95.20
60309;DHT22;50313;52.894;6.492;2023-06-10T08:22:35;20.60;94.90
60309;DHT22;50313;52.894;6.492;2023-06-10T08:25:04;20.80;95.30
60309;DHT22;50313;52.894;6.492;2023-06-10T08:27:31;20.70;93.90
60309;DHT22;50313;52.894;6.492;2023-06-10T08:30:05;20.70;93.60
60309;DHT22;50313;52.894;6.492;2023-06-10T08:32:41;20.80;93.30
60309;DHT22;50313;52.894;6.492;2023-06-10T08:35:15;21.00;93.20
60309;DHT22;50313;52.894;6.492;2023-06-10T08:37:51;21.10;92.30
60309;DHT22;50313;52.894;6.492;2023-06-10T08:40:22;21.20;91.30
60309;DHT22;50313;52.894;6.492;2023-06-10T08:43:06;21.30;91.30
60309;DHT22;50313;52.894;6.492;2023-06-10T08:45:42;21.40;91.40
60309;DHT22;50313;52.894;6.492;2023-06-10T08:48:18;21.50;91.60
60309;DHT22;50313;52.894;6.492;2023-06-10T08:50:53;21.60;90.60
60309;DHT22;50313;52.894;6.492;2023-06-10T08:53:23;21.80;90.70
60309;DHT22;50313;52.894;6.492;2023-06-10T08:55:53;21.70;88.90
60309;DHT22;50313;52.894;6.492;2023-06-10T08:58:50;21.90;88.90
60309;DHT22;50313;52.894;6.492;2023-06-10T09:01:18;22.00;89.40
60309;DHT22;50313;52.894;6.492;2023-06-10T09:04:18;22.10;87.50
60309;DHT22;50313;52.894;6.492;2023-06-10T09:09:56;22.20;85.90
60309;DHT22;50313;52.894;6.492;2023-06-10T09:12:47;22.40;88.30
60309;DHT22;50313;52.894;6.492;2023-06-10T09:15:27;22.60;88.30
60309;DHT22;50313;52.894;6.492;2023-06-10T09:18:22;22.60;85.60
60309;DHT22;50313;52.894;6.492;2023-06-10T09:21:27;22.60;84.80
60309;DHT22;50313;52.894;6.492;2023-06-10T09:24:01;22.70;84.70
60309;DHT22;50313;52.894;6.492;2023-06-10T09:27:01;22.80;84.70
60309;DHT22;50313;52.894;6.492;2023-06-10T09:46:34;23.60;77.80
60309;DHT22;50313;52.894;6.492;2023-06-10T09:49:40;23.70;80.00
60309;DHT22;50313;52.894;6.492;2023-06-10T10:01:01;23.90;71.60
60309;DHT22;50313;52.894;6.492;2023-06-10T10:14:07;24.40;70.60
60309;DHT22;50313;52.894;6.492;2023-06-10T10:16:52;24.50;65.70
60309;DHT22;50313;52.894;6.492;2023-06-10T10:19:31;24.60;64.60
60309;DHT22;50313;52.894;6.492;2023-06-10T10:22:17;24.70;64.30
60309;DHT22;50313;52.894;6.492;2023-06-10T10:25:11;24.80;65.00
60309;DHT22;50313;52.894;6.492;2023-06-10T10:28:10;24.90;65.10
60309;DHT22;50313;52.894;6.492;2023-06-10T10:30:52;25.00;61.90
60309;DHT22;50313;52.894;6.492;2023-06-10T10:33:31;25.00;64.30
60309;DHT22;50313;52.894;6.492;2023-06-10T10:36:02;25.20;64.90
60309;DHT22;50313;52.894;6.492;2023-06-10T10:38:48;25.40;65.60
60309;DHT22;50313;52.894;6.492;2023-06-10T10:41:23;25.30;56.80
60309;DHT22;50313;52.894;6.492;2023-06-10T10:44:16;25.30;60.50
60309;DHT22;50313;52.894;6.492;2023-06-10T10:46:49;25.50;61.00
60309;DHT22;50313;52.894;6.492;2023-06-10T10:49:31;25.60;56.60
60309;DHT22;50313;52.894;6.492;2023-06-10T10:52:43;25.80;58.50
60309;DHT22;50313;52.894;6.492;2023-06-10T10:55:37;25.80;57.70
60309;DHT22;50313;52.894;6.492;2023-06-10T10:58:34;25.70;59.90
60309;DHT22;50313;52.894;6.492;2023-06-10T11:01:15;25.90;58.50
60309;DHT22;50313;52.894;6.492;2023-06-10T11:03:45;26.00;57.20
60309;DHT22;50313;52.894;6.492;2023-06-10T11:06:15;26.00;52.90
60309;DHT22;50313;52.894;6.492;2023-06-10T11:11:19;26.20;53.00
60309;DHT22;50313;52.894;6.492;2023-06-10T11:14:28;26.30;52.70
60309;DHT22;50313;52.894;6.492;2023-06-10T11:16:57;26.40;51.90
60309;DHT22;50313;52.894;6.492;2023-06-10T11:19:37;26.50;54.70
60309;DHT22;50313;52.894;6.492;2023-06-10T11:25:55;26.40;56.10
60309;DHT22;50313;52.894;6.492;2023-06-10T11:41:29;27.20;50.40
60309;DHT22;50313;52.894;6.492;2023-06-10T12:31:28;27.80;49.50
60309;DHT22;50313;52.894;6.492;2023-06-10T12:34:42;28.20;49.00
60309;DHT22;50313;52.894;6.492;2023-06-10T12:47:44;29.00;47.40
60309;DHT22;50313;52.894;6.492;2023-06-10T12:50:26;29.20;47.30
60309;DHT22;50313;52.894;6.492;2023-06-10T12:53:29;29.50;46.60
60309;DHT22;50313;52.894;6.492;2023-06-10T12:59:37;29.60;47.00
60309;DHT22;50313;52.894;6.492;2023-06-10T13:02:24;29.70;47.60
60309;DHT22;50313;52.894;6.492;2023-06-10T13:05:18;29.80;45.30
60309;DHT22;50313;52.894;6.492;2023-06-10T13:11:15;30.00;44.90
60309;DHT22;50313;52.894;6.492;2023-06-10T13:17:03;30.50;39.60
60309;DHT22;50313;52.894;6.492;2023-06-10T13:20:14;30.70;38.40
60309;DHT22;50313;52.894;6.492;2023-06-10T13:23:22;30.50;36.80
60309;DHT22;50313;52.894;6.492;2023-06-10T13:29:31;30.70;39.20
60309;DHT22;50313;52.894;6.492;2023-06-10T13:35:34;30.70;35.60
60309;DHT22;50313;52.894;6.492;2023-06-10T13:38:21;30.80;38.70
60309;DHT22;50313;52.894;6.492;2023-06-10T13:40:58;30.90;37.30
60309;DHT22;50313;52.894;6.492;2023-06-10T13:43:38;30.80;36.20
60309;DHT22;50313;52.894;6.492;2023-06-10T13:46:22;31.00;36.70
60309;DHT22;50313;52.894;6.492;2023-06-10T13:49:07;30.70;36.70
60309;DHT22;50313;52.894;6.492;2023-06-10T13:51:47;31.20;37.10
60309;DHT22;50313;52.894;6.492;2023-06-10T13:54:22;31.50;37.60
60309;DHT22;50313;52.894;6.492;2023-06-10T13:56:53;31.80;38.80
60309;DHT22;50313;52.894;6.492;2023-06-10T13:59:21;31.70;37.10
60309;DHT22;50313;52.894;6.492;2023-06-10T14:01:54;31.40;35.20
60309;DHT22;50313;52.894;6.492;2023-06-10T14:04:32;31.60;36.90
60309;DHT22;50313;52.894;6.492;2023-06-10T14:06:58;31.40;34.80
60309;DHT22;50313;52.894;6.492;2023-06-10T14:09:36;31.10;35.20
60309;DHT22;50313;52.894;6.492;2023-06-10T14:12:36;31.10;34.70
60309;DHT22;50313;52.894;6.492;2023-06-10T14:15:07;31.30;35.10
60309;DHT22;50313;52.894;6.492;2023-06-10T14:17:36;31.60;36.60
60309;DHT22;50313;52.894;6.492;2023-06-10T14:20:02;31.80;36.40
60309;DHT22;50313;52.894;6.492;2023-06-10T14:22:41;32.00;36.80
60309;DHT22;50313;52.894;6.492;2023-06-10T14:25:10;32.20;36.00
60309;DHT22;50313;52.894;6.492;2023-06-10T14:31:33;31.90;37.20
60309;DHT22;50313;52.894;6.492;2023-06-10T14:34:26;31.80;36.10
60309;DHT22;50313;52.894;6.492;2023-06-10T14:37:01;31.80;35.10
60309;DHT22;50313;52.894;6.492;2023-06-10T14:39:53;31.90;35.00
60309;DHT22;50313;52.894;6.492;2023-06-10T14:42:24;32.00;35.60
60309;DHT22;50313;52.894;6.492;2023-06-10T14:44:58;31.70;35.10
60309;DHT22;50313;52.894;6.492;2023-06-10T14:47:44;31.90;35.90
60309;DHT22;50313;52.894;6.492;2023-06-10T14:50:52;32.50;35.60
60309;DHT22;50313;52.894;6.492;2023-06-10T14:53:26;32.60;33.30
60309;DHT22;50313;52.894;6.492;2023-06-10T14:56:08;32.70;31.90
60309;DHT22;50313;52.894;6.492;2023-06-10T14:58:47;32.90;33.30
60309;DHT22;50313;52.894;6.492;2023-06-10T15:01:30;33.30;32.30
60309;DHT22;50313;52.894;6.492;2023-06-10T15:03:59;32.90;32.00
60309;DHT22;50313;52.894;6.492;2023-06-10T15:06:45;32.90;31.80
60309;DHT22;50313;52.894;6.492;2023-06-10T15:09:19;32.60;29.80
60309;DHT22;50313;52.894;6.492;2023-06-10T15:11:51;32.90;30.90
60309;DHT22;50313;52.894;6.492;2023-06-10T15:14:19;33.30;30.80
60309;DHT22;50313;52.894;6.492;2023-06-10T15:16:47;32.90;29.30
60309;DHT22;50313;52.894;6.492;2023-06-10T15:30:43;33.10;28.80
60309;DHT22;50313;52.894;6.492;2023-06-10T15:33:26;32.90;30.10
60309;DHT22;50313;52.894;6.492;2023-06-10T15:35:59;33.00;28.30
60309;DHT22;50313;52.894;6.492;2023-06-10T15:39:06;33.10;28.90
60309;DHT22;50313;52.894;6.492;2023-06-10T15:47:34;33.00;26.80
60309;DHT22;50313;52.894;6.492;2023-06-10T15:50:59;32.50;26.00
60309;DHT22;50313;52.894;6.492;2023-06-10T18:14:18;26.90;40.20
60309;DHT22;50313;52.894;6.492;2023-06-10T18:19:41;26.60;43.00
60309;DHT22;50313;52.894;6.492;2023-06-10T18:22:15;26.50;43.90
60309;DHT22;50313;52.894;6.492;2023-06-10T18:24:56;26.30;44.20
60309;DHT22;50313;52.894;6.492;2023-06-10T18:27:31;26.10;44.60
60309;DHT22;50313;52.894;6.492;2023-06-10T18:30:00;26.10;44.80
60309;DHT22;50313;52.894;6.492;2023-06-10T18:32:34;26.00;45.50
60309;DHT22;50313;52.894;6.492;2023-06-10T18:35:02;25.90;45.60
60309;DHT22;50313;52.894;6.492;2023-06-10T18:37:35;25.80;45.50
60309;DHT22;50313;52.894;6.492;2023-06-10T18:40:07;25.70;45.60
60309;DHT22;50313;52.894;6.492;2023-06-10T18:42:47;25.70;46.40
60309;DHT22;50313;52.894;6.492;2023-06-10T18:45:17;25.70;46.70
60309;DHT22;50313;52.894;6.492;2023-06-10T18:47:57;25.50;47.20
60309;DHT22;50313;52.894;6.492;2023-06-10T18:50:55;25.50;47.50
60309;DHT22;50313;52.894;6.492;2023-06-10T18:53:23;25.40;47.50
60309;DHT22;50313;52.894;6.492;2023-06-10T18:55:54;25.30;48.80
60309;DHT22;50313;52.894;6.492;2023-06-10T18:58:24;25.30;48.70
60309;DHT22;50313;52.894;6.492;2023-06-10T19:00:49;25.20;49.00
60309;DHT22;50313;52.894;6.492;2023-06-10T19:03:25;25.10;49.90
60309;DHT22;50313;52.894;6.492;2023-06-10T19:09:04;24.90;50.90
60309;DHT22;50313;52.894;6.492;2023-06-10T19:11:42;24.70;52.40
60309;DHT22;50313;52.894;6.492;2023-06-10T19:14:13;24.70;51.20
60309;DHT22;50313;52.894;6.492;2023-06-10T19:22:15;24.50;53.60
60309;DHT22;50313;52.894;6.492;2023-06-10T19:24:41;24.50;53.20
60309;DHT22;50313;52.894;6.492;2023-06-10T19:27:16;24.30;53.90
60309;DHT22;50313;52.894;6.492;2023-06-10T19:32:39;24.00;55.80
60309;DHT22;50313;52.894;6.492;2023-06-10T19:35:52;23.90;55.50
60309;DHT22;50313;52.894;6.492;2023-06-10T19:38:23;23.80;55.00
60309;DHT22;50313;52.894;6.492;2023-06-10T19:40:58;23.70;55.10
60309;DHT22;50313;52.894;6.492;2023-06-10T19:43:39;23.70;56.00
60309;DHT22;50313;52.894;6.492;2023-06-10T19:46:12;23.50;56.40
60309;DHT22;50313;52.894;6.492;2023-06-10T19:48:49;23.40;56.70
60309;DHT22;50313;52.894;6.492;2023-06-10T19:51:26;23.30;56.70
60309;DHT22;50313;52.894;6.492;2023-06-10T19:54:12;23.10;57.50
60309;DHT22;50313;52.894;6.492;2023-06-10T19:56:38;23.00;58.50
60309;DHT22;50313;52.894;6.492;2023-06-10T19:59:33;22.90;59.20
60309;DHT22;50313;52.894;6.492;2023-06-10T20:02:38;22.80;59.30
60309;DHT22;50313;52.894;6.492;2023-06-10T20:05:14;22.60;60.60
60309;DHT22;50313;52.894;6.492;2023-06-10T20:07:52;22.50;61.90
60309;DHT22;50313;52.894;6.492;2023-06-10T20:10:20;22.30;64.00
60309;DHT22;50313;52.894;6.492;2023-06-10T20:12:46;22.20;64.60
60309;DHT22;50313;52.894;6.492;2023-06-10T20:15:22;22.20;66.30
60309;DHT22;50313;52.894;6.492;2023-06-10T20:18:02;22.10;70.90
60309;DHT22;50313;52.894;6.492;2023-06-10T20:20:52;22.10;72.50
60309;DHT22;50313;52.894;6.492;2023-06-10T20:23:18;21.80;73.90
60309;DHT22;50313;52.894;6.492;2023-06-10T20:26:13;21.70;77.40
60309;DHT22;50313;52.894;6.492;2023-06-10T20:28:44;21.60;79.00
60309;DHT22;50313;52.894;6.492;2023-06-10T20:31:13;21.60;83.40
60309;DHT22;50313;52.894;6.492;2023-06-10T20:34:02;21.60;82.60
60309;DHT22;50313;52.894;6.492;2023-06-10T20:36:34;21.50;89.90
60309;DHT22;50313;52.894;6.492;2023-06-10T20:39:08;21.50;91.40
60309;DHT22;50313;52.894;6.492;2023-06-10T20:41:44;21.40;92.30
60309;DHT22;50313;52.894;6.492;2023-06-10T20:44:11;21.50;93.70
60309;DHT22;50313;52.894;6.492;2023-06-10T20:46:45;21.40;95.30
60309;DHT22;50313;52.894;6.492;2023-06-10T20:49:21;21.30;96.00
60309;DHT22;50313;52.894;6.492;2023-06-10T20:52:00;21.30;98.80
60309;DHT22;50313;52.894;6.492;2023-06-10T20:54:26;21.20;99.40
60309;DHT22;50313;52.894;6.492;2023-06-10T20:57:01;21.20;99.90
60309;DHT22;50313;52.894;6.492;2023-06-10T20:59:34;21.20;99.90
60309;DHT22;50313;52.894;6.492;2023-06-10T21:02:29;21.10;99.90
60309;DHT22;50313;52.894;6.492;2023-06-10T21:05:10;21.00;99.90
60309;DHT22;50313;52.894;6.492;2023-06-10T21:08:04;21.00;99.90
60309;DHT22;50313;52.894;6.492;2023-06-10T21:10:39;20.90;99.90
60309;DHT22;50313;52.894;6.492;2023-06-10T21:13:17;20.90;99.90
60309;DHT22;50313;52.894;6.492;2023-06-10T21:15:47;20.80;99.90
60309;DHT22;50313;52.894;6.492;2023-06-10T21:18:23;20.80;99.90
60309;DHT22;50313;52.894;6.492;2023-06-10T21:24:01;20.70;99.90
60309;DHT22;50313;52.894;6.492;2023-06-10T21:26:47;20.70;99.90
60309;DHT22;50313;52.894;6.492;2023-06-10T21:29:22;20.60;99.90
60309;DHT22;50313;52.894;6.492;2023-06-10T21:31:53;20.50;99.90
60309;DHT22;50313;52.894;6.492;2023-06-10T21:34:24;20.40;99.90
60309;DHT22;50313;52.894;6.492;2023-06-10T21:36:52;20.40;99.90
60309;DHT22;50313;52.894;6.492;2023-06-10T21:39:18;20.40;99.90
60309;DHT22;50313;52.894;6.492;2023-06-10T21:41:44;20.40;99.90